Time;durP1;ratioP1;P1;durP2;ratioP2;P2;SDS_P1;SDS_P2;PMS_P1;PMS_P2;Temp;Humidity;BMP_temperature;BMP_pressure;BME280_temperature;BME280_humidity;BME280_pressure;Samples;Min_cycle;Max_cycle;Signal;HPM_P1;HPM_P2
2021/10/02 00:34:55;;;;;;;3.80;2.15;;;;;;;;;;5013951;28;20057;-63
2021/10/02 00:37:39;;;;;;;3.30;2.20;;;;;;;;;;5059694;28;20044;-63
2021/10/02 00:45:41;;;;;;;3.83;2.10;;;;;;;;;;5050262;28;20529;-63
2021/10/02 00:48:11;;;;;;;3.28;1.77;;;;;;;;;;5060508;28;20356;-65
2021/10/02 00:50:39;;;;;;;4.82;2.13;;;;;;;;;;5062147;28;20063;-64
2021/10/02 00:53:08;;;;;;;4.30;1.85;;;;;;;;;;5041465;28;20057;-62
2021/10/02 00:55:36;;;;;;;4.40;2.22;;;;;;;;;;5049974;28;20132;-62
2021/10/02 00:58:05;;;;;;;4.20;1.80;;;;;;;;;;5053270;28;20123;-68
2021/10/02 01:00:33;;;;;;;5.78;2.35;;;;;;;;;;5061633;28;20136;-63
2021/10/02 01:03:05;;;;;;;3.97;1.85;;;;;;;;;;5054514;28;20049;-65
2021/10/02 01:05:43;;;;;;;2.60;1.65;;;;;;;;;;5056577;28;20076;-64
2021/10/02 01:08:16;;;;;;;3.83;1.90;;;;;;;;;;5041847;28;20128;-64
2021/10/02 01:10:49;;;;;;;3.63;1.98;;;;;;;;;;5053592;28;20053;-62
2021/10/02 01:13:18;;;;;;;3.75;2.03;;;;;;;;;;5050243;28;20164;-62
2021/10/02 01:15:49;;;;;;;3.08;2.03;;;;;;;;;;5050677;28;20137;-64
2021/10/02 01:18:18;;;;;;;4.38;2.15;;;;;;;;;;5051761;28;20052;-62
2021/10/02 01:21:04;;;;;;;2.95;1.60;;;;;;;;;;5061427;28;20084;-62
2021/10/02 01:23:41;;;;;;;3.88;2.15;;;;;;;;;;5049269;28;20053;-62
2021/10/02 01:26:19;;;;;;;3.42;1.98;;;;;;;;;;5052660;28;20380;-66
2021/10/02 01:28:54;;;;;;;3.35;1.95;;;;;;;;;;5064007;28;20764;-62
2021/10/02 01:31:26;;;;;;;3.28;1.60;;;;;;;;;;5057993;28;20124;-62
2021/10/02 01:33:59;;;;;;;4.00;1.95;;;;;;;;;;5052815;28;20487;-62
2021/10/02 01:36:43;;;;;;;4.55;1.90;;;;;;;;;;5053630;28;20495;-63
2021/10/02 01:47:35;;;;;;;4.45;2.40;;;;;;;;;;5052713;28;20132;-63
2021/10/02 01:50:05;;;;;;;3.63;2.10;;;;;;;;;;5057083;28;20136;-68
2021/10/02 01:52:35;;;;;;;3.45;1.98;;;;;;;;;;5053498;28;20172;-62
2021/10/02 01:55:04;;;;;;;4.65;2.00;;;;;;;;;;5053073;28;20049;-64
2021/10/02 01:57:40;;;;;;;4.90;2.05;;;;;;;;;;5032728;28;20052;-62
2021/10/02 02:00:11;;;;;;;3.97;1.80;;;;;;;;;;5042211;28;20555;-62
2021/10/02 02:02:41;;;;;;;5.03;1.65;;;;;;;;;;5052614;28;20354;-63
2021/10/02 02:05:10;;;;;;;2.50;1.50;;;;;;;;;;5054448;28;20041;-64
2021/10/02 02:07:39;;;;;;;6.55;2.20;;;;;;;;;;5052966;28;20049;-62
2021/10/02 02:10:08;;;;;;;3.10;1.63;;;;;;;;;;5053019;28;20057;-64
2021/10/02 02:12:36;;;;;;;3.53;2.00;;;;;;;;;;5052840;28;20084;-63
2021/10/02 02:15:06;;;;;;;4.07;2.15;;;;;;;;;;5057032;28;20106;-63
2021/10/02 02:17:38;;;;;;;3.50;2.08;;;;;;;;;;5033695;28;20516;-64
2021/10/02 02:20:07;;;;;;;3.83;1.95;;;;;;;;;;5064089;28;20045;-63
2021/10/02 02:22:35;;;;;;;2.45;1.58;;;;;;;;;;5073097;28;20100;-62
2021/10/02 02:25:04;;;;;;;5.38;2.15;;;;;;;;;;5050488;28;20087;-62
2021/10/02 02:27:33;;;;;;;3.30;1.67;;;;;;;;;;5033566;28;20420;-62
2021/10/02 02:30:01;;;;;;;7.55;2.35;;;;;;;;;;5045127;28;20134;-62
2021/10/02 02:32:30;;;;;;;3.30;1.90;;;;;;;;;;5050138;28;20045;-62
2021/10/02 02:34:59;;;;;;;4.78;2.33;;;;;;;;;;5055945;28;20195;-63
2021/10/02 02:37:27;;;;;;;4.32;1.85;;;;;;;;;;5072035;28;20439;-62
2021/10/02 02:39:56;;;;;;;2.70;1.65;;;;;;;;;;5061000;28;20454;-63
2021/10/02 02:42:24;;;;;;;3.03;1.60;;;;;;;;;;5052331;28;20484;-65
2021/10/02 02:44:53;;;;;;;3.05;2.13;;;;;;;;;;5059907;28;20048;-61
2021/10/02 02:47:23;;;;;;;3.03;2.00;;;;;;;;;;5066905;28;20132;-64
2021/10/02 02:49:54;;;;;;;3.90;1.70;;;;;;;;;;5046227;28;20132;-62
2021/10/02 02:52:26;;;;;;;3.10;1.75;;;;;;;;;;5032182;28;20156;-68
2021/10/02 02:54:56;;;;;;;2.78;1.83;;;;;;;;;;5048818;28;20496;-63
2021/10/02 02:57:29;;;;;;;2.72;1.77;;;;;;;;;;5070183;28;20075;-64
2021/10/02 03:00:02;;;;;;;4.60;2.20;;;;;;;;;;5041044;28;20123;-62
2021/10/02 03:02:33;;;;;;;3.50;1.75;;;;;;;;;;5055843;28;20048;-67
2021/10/02 03:05:03;;;;;;;5.10;2.10;;;;;;;;;;5053967;28;20106;-63
2021/10/02 03:07:34;;;;;;;4.65;1.70;;;;;;;;;;5059912;28;20151;-66
2021/10/02 03:10:03;;;;;;;5.72;2.00;;;;;;;;;;5066761;28;20055;-62
2021/10/02 03:12:33;;;;;;;3.47;2.05;;;;;;;;;;5062350;28;20151;-66
2021/10/02 03:15:03;;;;;;;3.75;1.70;;;;;;;;;;5066003;28;20068;-64
2021/10/02 03:17:32;;;;;;;2.92;1.90;;;;;;;;;;5054002;28;20088;-67
2021/10/02 03:20:02;;;;;;;3.95;1.83;;;;;;;;;;5065635;28;20048;-62
2021/10/02 03:22:37;;;;;;;6.75;2.15;;;;;;;;;;5065133;28;20055;-72
2021/10/02 03:25:05;;;;;;;3.33;1.75;;;;;;;;;;5041920;28;20147;-62
2021/10/02 03:27:34;;;;;;;4.50;2.40;;;;;;;;;;5044539;28;20057;-63
2021/10/02 03:30:02;;;;;;;3.95;1.83;;;;;;;;;;4972662;28;20084;-62
2021/10/02 03:32:31;;;;;;;3.13;1.80;;;;;;;;;;347450;28;10022686;-62
2021/10/02 03:34:59;;;;;;;4.97;2.38;;;;;;;;;;5070929;28;20079;-63
2021/10/02 03:37:29;;;;;;;2.20;1.70;;;;;;;;;;5066846;28;20040;-63
2021/10/02 03:39:59;;;;;;;3.85;2.28;;;;;;;;;;5071533;28;20080;-62
2021/10/02 03:42:27;;;;;;;4.75;2.25;;;;;;;;;;5052575;28;20091;-63
2021/10/02 03:44:55;;;;;;;4.00;1.95;;;;;;;;;;5065983;28;20044;-62
2021/10/02 03:47:24;;;;;;;5.90;2.45;;;;;;;;;;5071069;28;20072;-62
2021/10/02 03:49:52;;;;;;;4.88;1.90;;;;;;;;;;5075769;28;20132;-63
2021/10/02 03:52:21;;;;;;;2.67;1.60;;;;;;;;;;5071255;28;20055;-67
2021/10/02 03:54:49;;;;;;;5.97;2.13;;;;;;;;;;5079345;28;20137;-68
2021/10/02 03:57:19;;;;;;;6.47;2.10;;;;;;;;;;5088689;28;20105;-62
2021/10/02 03:59:47;;;;;;;5.32;1.92;;;;;;;;;;5068178;28;20136;-62
2021/10/02 04:02:15;;;;;;;4.00;1.60;;;;;;;;;;5074104;28;20480;-62
2021/10/02 04:04:44;;;;;;;3.10;1.77;;;;;;;;;;5077939;28;20126;-62
2021/10/02 04:07:12;;;;;;;3.15;2.10;;;;;;;;;;5082864;28;20041;-62
2021/10/02 04:09:40;;;;;;;7.50;1.83;;;;;;;;;;5067101;28;20108;-65
2021/10/02 04:12:09;;;;;;;3.53;1.88;;;;;;;;;;5067315;28;20460;-63
2021/10/02 04:14:39;;;;;;;5.40;2.10;;;;;;;;;;5075900;28;20064;-62
2021/10/02 04:17:07;;;;;;;3.22;1.85;;;;;;;;;;5060613;28;20048;-63
2021/10/02 04:19:35;;;;;;;3.58;1.67;;;;;;;;;;5071447;28;20052;-62
2021/10/02 04:22:04;;;;;;;3.80;1.73;;;;;;;;;;5071276;28;20050;-65
2021/10/02 04:24:32;;;;;;;3.08;1.80;;;;;;;;;;5079001;28;20127;-67
2021/10/02 04:27:00;;;;;;;3.13;1.90;;;;;;;;;;5078044;28;20040;-63
2021/10/02 04:29:29;;;;;;;2.92;1.77;;;;;;;;;;5082774;28;20091;-63
2021/10/02 04:31:59;;;;;;;2.92;1.80;;;;;;;;;;5071667;28;20079;-65
2021/10/02 04:34:27;;;;;;;3.30;1.80;;;;;;;;;;5069510;28;20135;-64
2021/10/02 04:36:55;;;;;;;2.78;1.95;;;;;;;;;;5069814;28;20079;-62
2021/10/02 04:39:25;;;;;;;3.25;1.63;;;;;;;;;;5069802;28;20468;-63
2021/10/02 04:41:54;;;;;;;3.88;1.75;;;;;;;;;;5070458;28;20058;-64
2021/10/02 04:44:22;;;;;;;5.28;1.80;;;;;;;;;;5075980;28;20084;-63
2021/10/02 04:46:51;;;;;;;3.58;1.83;;;;;;;;;;5080647;28;20078;-68
2021/10/02 04:49:21;;;;;;;4.35;2.05;;;;;;;;;;5076681;28;20536;-67
2021/10/02 04:51:49;;;;;;;3.22;1.90;;;;;;;;;;5070298;28;20471;-62
2021/10/02 04:54:17;;;;;;;2.65;1.85;;;;;;;;;;5074521;28;20418;-62
2021/10/02 04:56:46;;;;;;;3.10;1.85;;;;;;;;;;5069860;28;20071;-62
2021/10/02 04:59:14;;;;;;;3.63;1.75;;;;;;;;;;5071534;28;20132;-62
2021/10/02 05:01:43;;;;;;;2.40;1.75;;;;;;;;;;5076815;28;20049;-62
2021/10/02 05:04:11;;;;;;;4.13;1.98;;;;;;;;;;5066064;28;20053;-63
2021/10/02 05:06:41;;;;;;;3.30;1.77;;;;;;;;;;5064881;28;20127;-65
2021/10/02 05:09:09;;;;;;;3.17;1.65;;;;;;;;;;5082655;28;20413;-63
2021/10/02 05:11:37;;;;;;;3.08;1.55;;;;;;;;;;5071691;28;20048;-65
2021/10/02 05:14:06;;;;;;;3.00;1.50;;;;;;;;;;5069360;28;20053;-65
2021/10/02 05:16:34;;;;;;;3.65;2.00;;;;;;;;;;5073187;28;20079;-63
2021/10/02 05:19:02;;;;;;;3.05;1.55;;;;;;;;;;5068851;28;20086;-66
2021/10/02 05:21:30;;;;;;;2.97;1.58;;;;;;;;;;5071233;28;20133;-62
2021/10/02 05:24:00;;;;;;;5.00;1.98;;;;;;;;;;5065252;28;20491;-64
2021/10/02 05:26:28;;;;;;;3.97;2.20;;;;;;;;;;5070200;28;20063;-63
2021/10/02 05:28:57;;;;;;;5.47;2.15;;;;;;;;;;5070610;28;20626;-64
2021/10/02 05:31:25;;;;;;;2.65;1.63;;;;;;;;;;5070567;28;20052;-63
2021/10/02 05:33:53;;;;;;;4.10;2.05;;;;;;;;;;5069736;28;20294;-62
2021/10/02 05:36:21;;;;;;;4.85;2.22;;;;;;;;;;5069593;28;20056;-63
2021/10/02 05:38:50;;;;;;;3.13;1.80;;;;;;;;;;5070095;28;20147;-69
2021/10/02 05:41:19;;;;;;;2.75;1.77;;;;;;;;;;5057751;28;20136;-66
2021/10/02 05:43:48;;;;;;;2.88;1.70;;;;;;;;;;5069958;28;20576;-63
2021/10/02 05:46:16;;;;;;;3.70;1.92;;;;;;;;;;5081368;28;20573;-66
2021/10/02 05:48:44;;;;;;;4.45;1.98;;;;;;;;;;5070849;28;20059;-66
2021/10/02 05:51:13;;;;;;;3.15;2.17;;;;;;;;;;5069504;28;20518;-64
2021/10/02 05:53:41;;;;;;;4.80;2.05;;;;;;;;;;5069078;28;20087;-64
2021/10/02 05:56:09;;;;;;;4.70;2.40;;;;;;;;;;5069797;28;20428;-70
2021/10/02 05:58:39;;;;;;;14.45;3.22;;;;;;;;;;5069578;28;20131;-62
2021/10/02 06:01:08;;;;;;;7.47;2.38;;;;;;;;;;5061945;28;20525;-64
2021/10/02 06:03:36;;;;;;;3.03;1.77;;;;;;;;;;5061432;28;20088;-63
2021/10/02 06:06:05;;;;;;;4.68;2.58;;;;;;;;;;5070661;28;20052;-67
2021/10/02 06:08:33;;;;;;;3.45;2.28;;;;;;;;;;5082426;28;20143;-63
2021/10/02 06:11:01;;;;;;;4.13;2.30;;;;;;;;;;5070385;28;20131;-63
2021/10/02 06:13:32;;;;;;;4.82;2.17;;;;;;;;;;5066469;28;20559;-65
2021/10/02 06:16:02;;;;;;;5.97;2.35;;;;;;;;;;5065144;28;20185;-64
2021/10/02 06:18:31;;;;;;;4.30;2.17;;;;;;;;;;5057276;28;20051;-63
2021/10/02 06:20:59;;;;;;;3.17;1.92;;;;;;;;;;5070095;28;20136;-65
2021/10/02 06:23:27;;;;;;;4.28;2.00;;;;;;;;;;5073058;28;20130;-66
2021/10/02 06:25:56;;;;;;;4.05;2.33;;;;;;;;;;5083272;28;20057;-63
2021/10/02 06:28:24;;;;;;;5.25;2.63;;;;;;;;;;5076440;28;20491;-64
2021/10/02 06:30:53;;;;;;;4.45;2.65;;;;;;;;;;5067148;28;20136;-62
2021/10/02 06:33:22;;;;;;;4.68;2.40;;;;;;;;;;5069111;28;20048;-69
2021/10/02 06:35:52;;;;;;;6.53;2.28;;;;;;;;;;5072959;28;20057;-63
2021/10/02 06:38:20;;;;;;;3.50;2.33;;;;;;;;;;5080009;28;20106;-69
2021/10/02 06:40:49;;;;;;;5.53;2.70;;;;;;;;;;5085498;28;20054;-62
2021/10/02 06:43:17;;;;;;;7.25;3.05;;;;;;;;;;5071478;28;20076;-65
2021/10/02 06:45:46;;;;;;;4.20;2.45;;;;;;;;;;5085276;28;20083;-66
2021/10/02 06:48:14;;;;;;;3.25;1.98;;;;;;;;;;5074988;28;20128;-62
2021/10/02 06:50:44;;;;;;;4.82;2.20;;;;;;;;;;5067060;28;20080;-62
2021/10/02 06:53:12;;;;;;;5.10;2.40;;;;;;;;;;5071339;28;20540;-62
2021/10/02 06:55:40;;;;;;;4.43;2.45;;;;;;;;;;5074465;28;20055;-65
2021/10/02 06:58:09;;;;;;;4.82;2.90;;;;;;;;;;5071828;28;20086;-62
2021/10/02 07:00:37;;;;;;;5.63;2.80;;;;;;;;;;5072459;28;20116;-62
2021/10/02 07:03:06;;;;;;;5.22;2.83;;;;;;;;;;5071914;28;20048;-63
2021/10/02 07:05:35;;;;;;;5.82;2.83;;;;;;;;;;5060796;28;20132;-63
2021/10/02 07:08:05;;;;;;;5.50;2.95;;;;;;;;;;5084020;28;20052;-64
2021/10/02 07:10:33;;;;;;;5.18;2.72;;;;;;;;;;5077243;28;20511;-66
2021/10/02 07:13:02;;;;;;;6.55;3.03;;;;;;;;;;5087401;28;20052;-64
2021/10/02 07:15:31;;;;;;;5.72;3.35;;;;;;;;;;5070661;28;20390;-64
2021/10/02 07:17:59;;;;;;;4.75;2.92;;;;;;;;;;5075132;28;20051;-62
2021/10/02 07:20:27;;;;;;;6.07;3.03;;;;;;;;;;5079211;28;20513;-66
2021/10/02 07:22:55;;;;;;;7.03;3.15;;;;;;;;;;5064521;28;20092;-62
2021/10/02 07:25:25;;;;;;;5.97;2.95;;;;;;;;;;5071123;28;20091;-62
2021/10/02 07:27:54;;;;;;;5.85;2.60;;;;;;;;;;5068497;28;20044;-65
2021/10/02 07:30:23;;;;;;;6.22;3.30;;;;;;;;;;5069821;28;20135;-64
2021/10/02 07:32:51;;;;;;;4.43;2.63;;;;;;;;;;5067922;28;20046;-70
2021/10/02 07:35:20;;;;;;;6.18;3.10;;;;;;;;;;5077072;28;20127;-64
2021/10/02 07:37:49;;;;;;;8.18;2.90;;;;;;;;;;5075772;28;20573;-64
2021/10/02 07:40:18;;;;;;;7.15;2.92;;;;;;;;;;5064528;28;20496;-65
2021/10/02 07:42:53;;;;;;;6.78;3.30;;;;;;;;;;5075665;28;20095;-68
2021/10/02 07:45:23;;;;;;;6.45;3.42;;;;;;;;;;5070451;28;20049;-65
2021/10/02 07:47:52;;;;;;;5.72;3.10;;;;;;;;;;5077181;28;20464;-71
2021/10/02 07:50:21;;;;;;;5.80;2.80;;;;;;;;;;5085058;28;20139;-68
2021/10/02 07:52:51;;;;;;;6.22;3.03;;;;;;;;;;5070391;28;20068;-62
2021/10/02 07:55:19;;;;;;;6.68;3.15;;;;;;;;;;5083897;28;20139;-63
2021/10/02 07:57:49;;;;;;;5.55;2.95;;;;;;;;;;5073077;28;20147;-66
2021/10/02 08:00:18;;;;;;;5.38;2.80;;;;;;;;;;5067583;28;20147;-67
2021/10/02 08:02:47;;;;;;;5.57;3.33;;;;;;;;;;5072209;28;20136;-68
2021/10/02 08:05:16;;;;;;;6.25;3.08;;;;;;;;;;5068103;28;20138;-64
2021/10/02 08:07:47;;;;;;;6.07;2.97;;;;;;;;;;5074717;28;20450;-66
2021/10/02 08:10:16;;;;;;;9.48;3.30;;;;;;;;;;5073659;28;20127;-65
2021/10/02 08:12:44;;;;;;;5.35;3.03;;;;;;;;;;5068538;28;20059;-65
2021/10/02 08:15:14;;;;;;;7.93;2.72;;;;;;;;;;5058406;28;20099;-67
2021/10/02 08:17:43;;;;;;;6.28;3.40;;;;;;;;;;5063125;28;20146;-64
2021/10/02 08:20:13;;;;;;;5.05;2.95;;;;;;;;;;5074990;28;20079;-66
2021/10/02 08:22:44;;;;;;;6.15;3.33;;;;;;;;;;5080361;28;20163;-63
2021/10/02 08:25:13;;;;;;;7.68;3.10;;;;;;;;;;5086742;28;20522;-65
2021/10/02 08:27:42;;;;;;;5.65;3.08;;;;;;;;;;5068794;28;20519;-63
2021/10/02 08:30:12;;;;;;;7.35;3.40;;;;;;;;;;5069145;28;20575;-66
2021/10/02 08:32:42;;;;;;;7.30;3.08;;;;;;;;;;5075995;28;20135;-65
2021/10/02 08:35:10;;;;;;;7.22;3.40;;;;;;;;;;5064641;28;20074;-62
2021/10/02 08:37:39;;;;;;;8.95;3.20;;;;;;;;;;5070661;28;20135;-65
2021/10/02 08:40:11;;;;;;;5.40;2.88;;;;;;;;;;5071028;28;20067;-62
2021/10/02 08:42:40;;;;;;;5.00;2.88;;;;;;;;;;5058404;28;20046;-63
2021/10/02 08:45:09;;;;;;;6.03;3.38;;;;;;;;;;5053796;28;20496;-69
2021/10/02 08:47:39;;;;;;;8.27;4.32;;;;;;;;;;5058184;28;20044;-64
2021/10/02 08:50:11;;;;;;;5.90;3.15;;;;;;;;;;5070329;28;20480;-63
2021/10/02 08:52:40;;;;;;;5.18;3.08;;;;;;;;;;5059327;28;20475;-67
2021/10/02 08:55:09;;;;;;;6.05;2.92;;;;;;;;;;5048972;28;20115;-64
2021/10/02 08:57:38;;;;;;;7.40;3.00;;;;;;;;;;5056251;28;20076;-63
2021/10/02 09:00:08;;;;;;;6.70;3.28;;;;;;;;;;5070809;28;20052;-63
2021/10/02 09:02:36;;;;;;;7.25;3.65;;;;;;;;;;5070849;28;20370;-64
2021/10/02 09:05:06;;;;;;;5.95;3.20;;;;;;;;;;5054116;28;20057;-63
2021/10/02 09:07:36;;;;;;;5.90;3.45;;;;;;;;;;5056548;28;20079;-63
2021/10/02 09:10:05;;;;;;;7.57;3.45;;;;;;;;;;5081887;28;20098;-64
2021/10/02 09:12:34;;;;;;;6.30;3.60;;;;;;;;;;5070584;28;20622;-63
2021/10/02 09:15:03;;;;;;;6.55;3.30;;;;;;;;;;5073226;28;20076;-63
2021/10/02 09:17:31;;;;;;;6.68;3.33;;;;;;;;;;5069717;28;20127;-63
2021/10/02 09:20:00;;;;;;;6.40;3.88;;;;;;;;;;5072472;28;20471;-64
2021/10/02 09:22:28;;;;;;;6.15;3.20;;;;;;;;;;5069699;28;20135;-65
2021/10/02 09:25:00;;;;;;;6.93;3.78;;;;;;;;;;5068291;28;20080;-69
2021/10/02 09:27:29;;;;;;;7.00;3.03;;;;;;;;;;5069182;28;20057;-66
2021/10/02 09:29:59;;;;;;;6.55;3.70;;;;;;;;;;5070224;28;20067;-65
2021/10/02 09:32:30;;;;;;;6.25;3.17;;;;;;;;;;5069289;28;20167;-65
2021/10/02 09:34:59;;;;;;;6.47;3.53;;;;;;;;;;5069208;28;20083;-64
2021/10/02 09:37:29;;;;;;;7.90;3.42;;;;;;;;;;5066507;28;20114;-65
2021/10/02 09:40:01;;;;;;;7.30;3.50;;;;;;;;;;5049721;28;20111;-66
2021/10/02 09:42:31;;;;;;;10.68;4.07;;;;;;;;;;5050500;28;20056;-72
2021/10/02 09:45:01;;;;;;;6.38;3.47;;;;;;;;;;5048507;28;20072;-67
2021/10/02 09:47:29;;;;;;;8.00;3.47;;;;;;;;;;5055318;28;20139;-68
2021/10/02 09:49:58;;;;;;;6.35;3.58;;;;;;;;;;5072627;28;20091;-67
2021/10/02 09:52:27;;;;;;;6.95;3.67;;;;;;;;;;5071905;28;20106;-64
2021/10/02 09:54:56;;;;;;;9.40;3.92;;;;;;;;;;5059431;28;20131;-68
2021/10/02 09:57:29;;;;;;;7.57;4.13;;;;;;;;;;5072586;28;20297;-64
2021/10/02 10:00:08;;;;;;;5.50;3.38;;;;;;;;;;5077047;28;20236;-65
2021/10/02 10:02:40;;;;;;;6.68;3.30;;;;;;;;;;5076293;28;20136;-69
2021/10/02 10:05:10;;;;;;;6.30;3.63;;;;;;;;;;5072237;28;20707;-65
2021/10/02 10:07:38;;;;;;;4.90;3.47;;;;;;;;;;5069140;28;20439;-68
2021/10/02 10:10:08;;;;;;;6.13;3.55;;;;;;;;;;5072095;28;20596;-67
2021/10/02 10:12:38;;;;;;;6.55;2.90;;;;;;;;;;5060038;28;20074;-65
2021/10/02 10:15:08;;;;;;;6.07;3.45;;;;;;;;;;5069718;28;20072;-65
2021/10/02 10:17:37;;;;;;;6.35;3.47;;;;;;;;;;5071560;28;20130;-65
2021/10/02 10:20:07;;;;;;;6.18;3.38;;;;;;;;;;5071347;28;20536;-64
2021/10/02 10:22:35;;;;;;;6.50;3.63;;;;;;;;;;5071642;28;20147;-64
2021/10/02 10:25:06;;;;;;;4.93;3.10;;;;;;;;;;5071281;28;20083;-65
2021/10/02 10:27:36;;;;;;;5.63;2.90;;;;;;;;;;5071818;28;20171;-67
2021/10/02 10:30:10;;;;;;;6.05;3.40;;;;;;;;;;5055526;28;20497;-65
2021/10/02 10:32:39;;;;;;;4.38;2.83;;;;;;;;;;5052414;28;20049;-65
2021/10/02 10:35:08;;;;;;;5.30;3.17;;;;;;;;;;5070627;28;20075;-64
2021/10/02 10:37:37;;;;;;;4.80;3.10;;;;;;;;;;5072014;28;20489;-67
2021/10/02 10:40:06;;;;;;;5.18;2.97;;;;;;;;;;5071972;28;20056;-65
2021/10/02 10:42:34;;;;;;;4.75;2.60;;;;;;;;;;5070295;28;20040;-64
2021/10/02 10:45:03;;;;;;;4.05;2.67;;;;;;;;;;5057744;28;20068;-64
2021/10/02 10:47:33;;;;;;;6.43;2.67;;;;;;;;;;5072540;28;20054;-65
2021/10/02 10:50:01;;;;;;;6.50;3.03;;;;;;;;;;5072836;28;20064;-66
2021/10/02 10:52:35;;;;;;;4.75;2.78;;;;;;;;;;5072705;28;20049;-64
2021/10/02 10:55:11;;;;;;;4.93;3.00;;;;;;;;;;5071644;28;20052;-62
2021/10/02 10:57:40;;;;;;;4.57;2.88;;;;;;;;;;5072064;28;20079;-63
2021/10/02 11:00:10;;;;;;;3.65;2.63;;;;;;;;;;5072590;28;20079;-63
2021/10/02 11:02:44;;;;;;;4.65;2.78;;;;;;;;;;5068652;28;20053;-63
2021/10/02 11:05:30;;;;;;;3.80;2.40;;;;;;;;;;5051949;28;20053;-63
2021/10/02 11:07:59;;;;;;;4.25;2.53;;;;;;;;;;5067842;28;20076;-63
2021/10/02 11:10:42;;;;;;;6.22;2.97;;;;;;;;;;5070154;28;20567;-62
2021/10/02 11:13:10;;;;;;;4.43;2.35;;;;;;;;;;5066212;28;20127;-61
2021/10/02 11:15:39;;;;;;;4.43;2.75;;;;;;;;;;5072486;28;20087;-62
2021/10/02 11:18:28;;;;;;;4.63;2.90;;;;;;;;;;5071943;28;20044;-65
2021/10/02 11:21:01;;;;;;;5.18;2.40;;;;;;;;;;5081663;28;20131;-61
2021/10/02 11:24:03;;;;;;;4.97;2.90;;;;;;;;;;5076069;28;20448;-62
2021/10/02 11:26:40;;;;;;;3.40;2.13;;;;;;;;;;5091888;28;20479;-66
2021/10/02 11:29:23;;;;;;;4.18;2.17;;;;;;;;;;5071747;28;20051;-63
2021/10/02 11:31:53;;;;;;;5.28;2.53;;;;;;;;;;5072169;28;20135;-70
2021/10/02 11:34:23;;;;;;;3.75;2.20;;;;;;;;;;5069247;28;20048;-71
2021/10/02 11:36:56;;;;;;;3.38;2.25;;;;;;;;;;5072714;28;20055;-69
2021/10/02 11:39:30;;;;;;;3.10;2.08;;;;;;;;;;5071699;28;20075;-66
2021/10/02 11:42:00;;;;;;;4.25;2.08;;;;;;;;;;5072000;28;20067;-64
2021/10/02 11:44:44;;;;;;;4.03;2.30;;;;;;;;;;5070586;28;20575;-67
2021/10/02 11:47:35;;;;;;;3.80;2.35;;;;;;;;;;5071300;28;20098;-65
2021/10/02 11:50:24;;;;;;;3.13;2.05;;;;;;;;;;5071321;28;20531;-63
2021/10/02 11:53:07;;;;;;;2.85;2.13;;;;;;;;;;5070202;28;20399;-67
2021/10/02 11:55:50;;;;;;;2.50;1.67;;;;;;;;;;5051045;28;20148;-64
2021/10/02 11:58:21;;;;;;;5.38;2.13;;;;;;;;;;5057320;28;20136;-65
2021/10/02 12:00:51;;;;;;;3.72;2.35;;;;;;;;;;5070555;28;20468;-64
2021/10/02 12:03:21;;;;;;;3.55;2.22;;;;;;;;;;5070816;28;20083;-65
2021/10/02 12:05:50;;;;;;;2.70;1.90;;;;;;;;;;5070489;28;20044;-67
2021/10/02 12:08:19;;;;;;;3.55;2.25;;;;;;;;;;5071603;28;20052;-67
2021/10/02 12:10:54;;;;;;;3.53;2.35;;;;;;;;;;5065329;28;20140;-64
2021/10/02 12:13:24;;;;;;;3.53;2.25;;;;;;;;;;5050709;28;20131;-68
2021/10/02 12:15:59;;;;;;;3.65;2.60;;;;;;;;;;5052861;28;20435;-67
2021/10/02 12:18:42;;;;;;;3.95;2.33;;;;;;;;;;5051083;28;20350;-65
2021/10/02 12:21:12;;;;;;;3.65;2.25;;;;;;;;;;5066302;28;20056;-64
2021/10/02 12:23:50;;;;;;;3.38;2.40;;;;;;;;;;5070459;28;20074;-65
2021/10/02 12:26:19;;;;;;;3.58;2.35;;;;;;;;;;5071037;28;20048;-65
2021/10/02 12:28:48;;;;;;;3.20;2.15;;;;;;;;;;5068876;28;20127;-68
2021/10/02 12:31:17;;;;;;;3.80;2.63;;;;;;;;;;5070427;28;20048;-64
2021/10/02 12:33:45;;;;;;;4.55;2.53;;;;;;;;;;5070254;28;20076;-64
2021/10/02 12:36:13;;;;;;;3.60;2.55;;;;;;;;;;5070371;28;20135;-66
2021/10/02 12:38:42;;;;;;;4.00;2.45;;;;;;;;;;5081855;28;20083;-65
2021/10/02 12:41:12;;;;;;;4.95;2.33;;;;;;;;;;5075793;28;20060;-69
2021/10/02 12:43:40;;;;;;;3.53;2.38;;;;;;;;;;5055455;28;20075;-65
2021/10/02 12:46:19;;;;;;;5.03;2.90;;;;;;;;;;5067028;28;20053;-65
2021/10/02 12:48:48;;;;;;;3.97;2.50;;;;;;;;;;5067512;28;20049;-65
2021/10/02 12:51:16;;;;;;;4.57;2.60;;;;;;;;;;5059304;28;20053;-65
2021/10/02 12:53:45;;;;;;;3.95;2.55;;;;;;;;;;5066378;28;20514;-65
2021/10/02 12:56:17;;;;;;;3.50;2.28;;;;;;;;;;5070554;28;20087;-71
2021/10/02 12:58:46;;;;;;;3.83;2.47;;;;;;;;;;5070157;28;20128;-67
2021/10/02 13:01:14;;;;;;;3.70;2.60;;;;;;;;;;5070592;28;20076;-65
2021/10/02 13:03:50;;;;;;;3.53;2.40;;;;;;;;;;5068101;28;20049;-66
2021/10/02 13:06:18;;;;;;;7.63;2.92;;;;;;;;;;5069756;28;20059;-65
2021/10/02 13:08:46;;;;;;;6.10;2.65;;;;;;;;;;5070021;28;20091;-65
2021/10/02 13:11:28;;;;;;;3.05;2.20;;;;;;;;;;5071053;28;20084;-65
2021/10/02 13:13:56;;;;;;;4.70;2.58;;;;;;;;;;5069766;28;20060;-65
2021/10/02 13:16:25;;;;;;;3.75;2.60;;;;;;;;;;5074510;28;20053;-69
2021/10/02 13:18:57;;;;;;;4.93;2.45;;;;;;;;;;5061720;28;20442;-65
2021/10/02 13:21:25;;;;;;;4.32;2.30;;;;;;;;;;5062111;28;20048;-66
2021/10/02 13:23:53;;;;;;;3.88;2.42;;;;;;;;;;5068690;28;20072;-68
2021/10/02 13:26:23;;;;;;;2.83;1.95;;;;;;;;;;5072219;28;20083;-70
2021/10/02 13:28:53;;;;;;;3.17;2.28;;;;;;;;;;5073366;28;20195;-66
2021/10/02 13:31:23;;;;;;;4.00;2.20;;;;;;;;;;5073925;28;20099;-68
2021/10/02 13:33:53;;;;;;;3.78;2.55;;;;;;;;;;5068728;28;20053;-73
2021/10/02 13:36:24;;;;;;;3.20;2.22;;;;;;;;;;5063975;28;20084;-68
2021/10/02 13:38:52;;;;;;;4.75;2.47;;;;;;;;;;5056565;28;20403;-72
2021/10/02 13:41:20;;;;;;;5.07;2.28;;;;;;;;;;5074065;28;20090;-67
2021/10/02 13:43:53;;;;;;;4.65;2.25;;;;;;;;;;5075288;28;20080;-67
2021/10/02 13:46:28;;;;;;;3.45;2.20;;;;;;;;;;5065215;28;20041;-68
2021/10/02 13:48:57;;;;;;;2.78;1.73;;;;;;;;;;5054344;28;20053;-68
2021/10/02 13:51:26;;;;;;;3.00;2.08;;;;;;;;;;5053558;28;20132;-66
2021/10/02 13:53:56;;;;;;;3.35;2.08;;;;;;;;;;5069856;28;20051;-72
2021/10/02 13:56:25;;;;;;;4.05;2.25;;;;;;;;;;5072312;28;20443;-66
2021/10/02 13:58:53;;;;;;;2.60;2.03;;;;;;;;;;5072887;28;20431;-69
2021/10/02 14:01:21;;;;;;;4.15;2.38;;;;;;;;;;5073135;28;20044;-71
2021/10/02 14:03:50;;;;;;;4.43;2.17;;;;;;;;;;5072371;28;20435;-68
2021/10/02 14:06:18;;;;;;;2.85;2.13;;;;;;;;;;5073321;28;20059;-67
2021/10/02 14:08:48;;;;;;;5.25;2.17;;;;;;;;;;5072424;28;20058;-66
2021/10/02 14:11:17;;;;;;;3.50;2.03;;;;;;;;;;5057824;28;20072;-65
2021/10/02 14:13:45;;;;;;;4.68;2.13;;;;;;;;;;5072387;28;20088;-71
2021/10/02 14:16:14;;;;;;;3.47;2.03;;;;;;;;;;5072308;28;20489;-65
2021/10/02 14:18:42;;;;;;;3.33;2.10;;;;;;;;;;5072177;28;20040;-66
2021/10/02 14:21:11;;;;;;;2.63;1.85;;;;;;;;;;5072831;28;20510;-66
2021/10/02 14:23:40;;;;;;;2.53;1.58;;;;;;;;;;5071848;28;20080;-65
2021/10/02 14:26:11;;;;;;;4.68;2.03;;;;;;;;;;5072260;28;20087;-72
2021/10/02 14:28:40;;;;;;;4.03;2.22;;;;;;;;;;5071983;28;20484;-66
2021/10/02 14:31:09;;;;;;;3.38;2.17;;;;;;;;;;5056496;28;20076;-66
2021/10/02 14:33:38;;;;;;;3.03;2.15;;;;;;;;;;5051513;28;20456;-66
2021/10/02 14:36:06;;;;;;;5.65;2.60;;;;;;;;;;5053034;28;20509;-66
2021/10/02 14:38:37;;;;;;;3.60;2.25;;;;;;;;;;5053209;28;20136;-66
2021/10/02 14:41:06;;;;;;;3.55;2.13;;;;;;;;;;5071530;28;20062;-74
2021/10/02 14:43:37;;;;;;;3.78;2.13;;;;;;;;;;5068912;28;20080;-69
2021/10/02 14:46:06;;;;;;;7.32;2.83;;;;;;;;;;5067110;28;20045;-70
2021/10/02 14:48:34;;;;;;;3.03;2.10;;;;;;;;;;5052400;28;20052;-65
2021/10/02 14:51:02;;;;;;;3.67;2.42;;;;;;;;;;5052804;28;20059;-73
2021/10/02 14:53:33;;;;;;;3.95;2.63;;;;;;;;;;5062900;28;20075;-66
2021/10/02 14:56:01;;;;;;;4.20;2.17;;;;;;;;;;5071599;28;20497;-66
2021/10/02 14:58:30;;;;;;;2.72;2.20;;;;;;;;;;5071698;28;20470;-66
2021/10/02 15:01:00;;;;;;;4.07;2.00;;;;;;;;;;5070001;28;20078;-66
2021/10/02 15:03:29;;;;;;;3.60;2.50;;;;;;;;;;5070591;28;20052;-70
2021/10/02 15:05:57;;;;;;;6.70;3.00;;;;;;;;;;5071261;28;20076;-65
2021/10/02 15:08:26;;;;;;;4.18;2.63;;;;;;;;;;5051632;28;20142;-66
2021/10/02 15:10:54;;;;;;;4.03;2.80;;;;;;;;;;5062280;28;20162;-66
2021/10/02 15:13:24;;;;;;;3.42;2.38;;;;;;;;;;5071015;28;20131;-76
2021/10/02 15:15:56;;;;;;;3.95;2.80;;;;;;;;;;5072578;28;20475;-72
2021/10/02 15:18:25;;;;;;;6.22;2.85;;;;;;;;;;5061431;28;20055;-66
2021/10/02 15:20:55;;;;;;;3.25;2.25;;;;;;;;;;5077398;28;20083;-69
2021/10/02 15:23:26;;;;;;;3.70;2.30;;;;;;;;;;5055929;28;20048;-67
2021/10/02 15:25:57;;;;;;;5.57;2.42;;;;;;;;;;5070133;28;20037;-66
2021/10/02 15:28:29;;;;;;;4.60;2.40;;;;;;;;;;5071758;28;20076;-66
2021/10/02 15:30:57;;;;;;;5.30;2.70;;;;;;;;;;5087971;28;20559;-70
2021/10/02 15:33:27;;;;;;;5.47;2.47;;;;;;;;;;5076914;28;20052;-66
2021/10/02 15:35:56;;;;;;;4.15;2.60;;;;;;;;;;5057668;28;20084;-66
2021/10/02 15:38:24;;;;;;;5.97;2.47;;;;;;;;;;5071716;28;20053;-66
2021/10/02 15:40:53;;;;;;;4.28;2.63;;;;;;;;;;5070744;28;20564;-73
2021/10/02 15:43:22;;;;;;;3.17;2.30;;;;;;;;;;5077744;28;20143;-68
2021/10/02 15:45:51;;;;;;;6.07;2.72;;;;;;;;;;5090578;28;20079;-68
2021/10/02 15:48:20;;;;;;;5.95;2.60;;;;;;;;;;5075417;28;20106;-66